Oliver, Canada
Current Conditions -  °F | °C
As of 7:00 AM on Monday 22 Dec 2014 (Local Time) from CYYF Reporting Station
Few Clouds Few Clouds  
Wind Chill: 25°   Ceiling: Unl
Heat Index: 32°   Visibility: 15mi
Dew Point: 28°   Wind: 8mph
Humidity: 87%   Direction: 150°SSE
Pressure: 30.12"   Gusts: NA
Location:  49.18°N, 119.55°W
Report Text: CYYF 221500Z 15007KT 15SM FEW120 M00/M02 A3012 RMK AC1 PRESRR SLP213
Loading
Personal Weather Stations






























Interactive Weather Map New forecast layout! Learn more

10-Day Weather Forecast

Advertisements
Track Severe Weather on mobile